Time;durP1;ratioP1;P1;durP2;ratioP2;P2;SDS_P1;SDS_P2;PMS_P1;PMS_P2;Temp;Humidity;BMP_temperature;BMP_pressure;BME280_temperature;BME280_humidity;BME280_pressure;Samples;Min_cycle;Max_cycle;Signal;HPM_P1;HPM_P2
2023/08/15 00:00:27;;;;;;;9.85;4.68;;;;;;;22.38;78.67;98299.00;2594495;28;20429;-84
2023/08/15 00:02:03;;;;;;;5.03;4.53;;;;;;;22.31;78.57;98307.63;2592331;28;20068;-84
2023/08/15 00:03:18;;;;;;;7.10;4.88;;;;;;;22.32;78.74;98304.81;2592242;28;20217;-84
2023/08/15 00:04:35;;;;;;;6.88;4.78;;;;;;;22.24;78.77;98308.09;2591734;28;20046;-84
2023/08/15 00:05:51;;;;;;;4.90;4.38;;;;;;;22.35;77.23;98298.41;2589593;28;20148;-84
2023/08/15 00:07:06;;;;;;;5.30;4.68;;;;;;;22.60;75.53;98307.16;2577711;28;20055;-84
2023/08/15 00:08:22;;;;;;;7.05;4.53;;;;;;;22.57;74.93;98303.75;2583026;28;20053;-84
2023/08/15 00:09:37;;;;;;;6.30;4.55;;;;;;;22.55;76.38;98299.50;2586719;28;20042;-84
2023/08/15 00:10:53;;;;;;;5.13;4.55;;;;;;;22.61;73.98;98304.34;2588318;28;20370;-84
2023/08/15 00:12:08;;;;;;;4.70;4.30;;;;;;;22.76;73.31;98307.59;2590681;28;20095;-84
2023/08/15 00:13:24;;;;;;;5.15;3.92;;;;;;;22.73;72.71;98307.88;2588560;28;20156;-84
2023/08/15 00:14:39;;;;;;;4.85;4.28;;;;;;;22.57;75.54;98302.91;2588959;28;20515;-84
2023/08/15 00:15:55;;;;;;;6.35;4.22;;;;;;;22.46;74.02;98301.06;2589222;28;20057;-84
2023/08/15 00:17:11;;;;;;;8.00;4.90;;;;;;;22.55;73.76;98305.69;2577120;28;20762;-84
2023/08/15 00:18:27;;;;;;;6.35;4.60;;;;;;;22.73;72.48;98299.84;2581239;28;20073;-84
2023/08/15 00:19:43;;;;;;;11.30;4.70;;;;;;;22.78;72.98;98304.81;2586960;28;20046;-84
2023/08/15 00:20:58;;;;;;;5.25;4.50;;;;;;;22.70;73.62;98303.63;2586997;28;20053;-84
2023/08/15 00:22:15;;;;;;;6.13;4.45;;;;;;;22.76;72.76;98304.06;2587069;28;20237;-84
2023/08/15 00:23:34;;;;;;;6.15;4.50;;;;;;;22.74;72.02;98314.91;2586505;28;20102;-84
2023/08/15 00:24:49;;;;;;;7.97;5.00;;;;;;;22.84;71.70;98312.31;2586994;28;20088;-84
2023/08/15 00:26:05;;;;;;;4.30;3.90;;;;;;;22.80;71.47;98311.72;2590081;28;20076;-84
2023/08/15 00:27:20;;;;;;;5.78;4.35;;;;;;;22.62;72.13;98314.03;2592521;28;20053;-84
2023/08/15 00:28:36;;;;;;;7.65;4.43;;;;;;;22.64;73.04;98309.47;2591292;28;20042;-84
2023/08/15 00:29:51;;;;;;;6.95;4.28;;;;;;;22.18;78.29;98311.25;2592335;28;20042;-84
2023/08/15 00:31:07;;;;;;;7.32;4.30;;;;;;;21.96;79.57;98310.25;2590404;28;20049;-84
2023/08/15 00:32:22;;;;;;;5.85;4.43;;;;;;;21.94;79.00;98311.34;2588979;28;20053;-84
2023/08/15 00:33:38;;;;;;;7.10;4.75;;;;;;;22.27;77.18;98310.50;2588392;28;20395;-84
2023/08/15 00:34:53;;;;;;;7.97;4.90;;;;;;;22.34;75.91;98312.72;2590510;28;20061;-84
2023/08/15 00:36:09;;;;;;;7.18;4.88;;;;;;;22.27;77.41;98312.34;2593080;28;20053;-85
2023/08/15 00:37:24;;;;;;;5.65;4.40;;;;;;;21.78;81.26;98320.50;2595223;28;20415;-84
2023/08/15 00:38:40;;;;;;;9.07;4.60;;;;;;;21.76;81.29;98317.09;2591275;28;20045;-84
2023/08/15 00:39:55;;;;;;;6.03;4.55;;;;;;;21.79;81.69;98313.38;2591774;28;20081;-84
2023/08/15 00:41:11;;;;;;;4.80;4.38;;;;;;;21.72;82.22;98321.84;2588370;28;20554;-84
2023/08/15 00:42:27;;;;;;;7.18;4.40;;;;;;;21.68;82.22;98324.84;2592285;28;20064;-84
2023/08/15 00:43:42;;;;;;;6.10;4.75;;;;;;;21.58;83.80;98324.63;2593354;28;20038;-84
2023/08/15 00:44:58;;;;;;;5.55;4.30;;;;;;;21.44;85.51;98331.03;2590963;28;20100;-85
2023/08/15 00:46:14;;;;;;;7.82;5.10;;;;;;;21.54;85.08;98326.72;2592132;28;20061;-84
2023/08/15 00:47:30;;;;;;;8.15;4.75;;;;;;;21.39;87.16;98333.19;2592016;28;20073;-85
2023/08/15 00:48:45;;;;;;;9.18;4.85;;;;;;;21.36;87.42;98328.06;2587524;28;20060;-84
2023/08/15 00:50:02;;;;;;;6.45;4.55;;;;;;;21.45;86.39;98327.38;2589710;28;20257;-85
2023/08/15 00:51:19;;;;;;;5.88;4.78;;;;;;;21.45;85.93;98327.38;2590534;28;20042;-83
2023/08/15 00:52:35;;;;;;;7.13;4.88;;;;;;;21.64;83.92;98331.31;2587759;28;20124;-84
2023/08/15 00:53:51;;;;;;;9.93;4.97;;;;;;;21.73;83.12;98326.19;2592332;28;20061;-84
2023/08/15 00:55:08;;;;;;;5.93;4.68;;;;;;;21.49;85.30;98325.34;2592347;28;20089;-85
2023/08/15 00:56:23;;;;;;;5.90;4.70;;;;;;;21.27;87.98;98330.47;2595221;28;20057;-84
2023/08/15 00:57:39;;;;;;;5.28;4.72;;;;;;;21.21;88.63;98328.25;2595214;28;20103;-84
2023/08/15 00:58:55;;;;;;;5.43;4.70;;;;;;;21.14;90.67;98333.16;2592737;28;20046;-84
2023/08/15 01:00:11;;;;;;;8.43;4.90;;;;;;;21.08;91.29;98332.78;2593035;28;20045;-84
2023/08/15 01:01:27;;;;;;;7.85;4.78;;;;;;;21.06;93.02;98338.22;2595087;28;20085;-84
2023/08/15 01:02:42;;;;;;;7.72;4.78;;;;;;;21.06;93.55;98337.34;2589563;28;20482;-84
2023/08/15 01:03:59;;;;;;;8.48;5.28;;;;;;;21.38;90.58;98336.81;2592789;28;20057;-84
2023/08/15 01:05:16;;;;;;;8.63;5.50;;;;;;;21.38;96.71;98342.97;2590681;28;20049;-84
2023/08/15 01:06:32;;;;;;;8.23;6.28;;;;;;;21.50;100.00;98346.53;2589999;28;20052;-84
2023/08/15 01:07:48;;;;;;;7.88;6.95;;;;;;;21.44;100.00;98347.88;2591363;28;20072;-84
2023/08/15 01:09:04;;;;;;;7.72;6.13;;;;;;;21.50;100.00;98349.19;2593494;28;20493;-84
2023/08/15 01:10:20;;;;;;;10.38;6.25;;;;;;;21.48;100.00;98347.63;2595620;28;20053;-85
2023/08/15 01:11:48;;;;;;;7.15;6.18;;;;;;;21.36;100.00;98349.38;2588660;28;20571;-85
2023/08/15 01:14:01;;;;;;;9.90;6.20;;;;;;;21.22;100.00;98353.06;2591827;28;20068;-84
2023/08/15 01:15:23;;;;;;;8.48;5.55;;;;;;;21.22;100.00;98351.25;2554805;29;20106;-84
2023/08/15 01:16:43;;;;;;;8.50;6.15;;;;;;;21.09;100.00;98350.44;2554239;29;20051;-84
2023/08/15 01:18:14;;;;;;;6.65;5.75;;;;;;;20.94;100.00;98345.28;2553412;29;20066;-84
2023/08/15 01:19:39;;;;;;;9.55;6.82;;;;;;;20.75;100.00;98349.25;2552334;29;20059;-84
2023/08/15 01:20:55;;;;;;;7.95;6.53;;;;;;;20.57;100.00;98340.75;2552443;29;20051;-84
2023/08/15 01:22:20;;;;;;;7.90;7.13;;;;;;;20.35;100.00;98348.56;2553398;29;20051;-84
2023/08/15 01:23:45;;;;;;;9.13;6.47;;;;;;;20.49;100.00;98350.25;2552375;29;20055;-84
2023/08/15 01:25:01;;;;;;;8.40;6.78;;;;;;;20.57;100.00;98340.75;2554144;29;20090;-84
2023/08/15 01:26:17;;;;;;;7.85;6.70;;;;;;;20.57;100.00;98338.09;2554213;29;20063;-84
2023/08/15 01:27:32;;;;;;;9.25;6.00;;;;;;;20.62;100.00;98336.94;2554960;29;20070;-84
2023/08/15 01:28:48;;;;;;;7.05;6.13;;;;;;;20.77;100.00;98337.63;2554474;29;20059;-85
2023/08/15 01:30:04;;;;;;;9.10;6.15;;;;;;;20.60;100.00;98337.03;2553610;29;20087;-84
2023/08/15 01:31:34;;;;;;;7.28;6.53;;;;;;;20.56;100.00;98340.88;2553054;29;20058;-84
2023/08/15 01:33:13;;;;;;;7.95;6.10;;;;;;;20.49;100.00;98339.59;2552570;29;20083;-85
2023/08/15 01:34:36;;;;;;;10.30;6.40;;;;;;;20.60;100.00;98342.34;2551987;29;20051;-84
2023/08/15 01:35:59;;;;;;;6.85;6.15;;;;;;;20.56;100.00;98346.19;2553910;29;20130;-84
2023/08/15 01:37:28;;;;;;;10.05;6.45;;;;;;;20.55;100.00;98340.00;2554404;29;20044;-84
2023/08/15 01:38:54;;;;;;;8.18;6.35;;;;;;;20.81;100.00;98347.13;2552565;29;20062;-85
2023/08/15 01:40:11;;;;;;;9.07;5.85;;;;;;;20.86;100.00;98347.66;2551826;29;20240;-84
2023/08/15 01:41:29;;;;;;;6.88;6.05;;;;;;;20.80;100.00;98348.03;2552640;29;20183;-84
2023/08/15 01:42:45;;;;;;;8.85;5.85;;;;;;;20.72;100.00;98345.94;2552118;29;20526;-84
2023/08/15 01:44:02;;;;;;;6.97;5.88;;;;;;;20.80;100.00;98345.38;2552778;29;20560;-84
2023/08/15 01:45:18;;;;;;;8.43;6.30;;;;;;;20.79;100.00;98351.66;2552688;29;20082;-84
2023/08/15 01:46:33;;;;;;;7.35;6.00;;;;;;;20.81;100.00;98349.78;2573109;28;20066;-84
2023/08/15 01:47:51;;;;;;;6.22;5.43;;;;;;;20.49;100.00;98339.59;2593917;28;20057;-84
2023/08/15 01:49:07;;;;;;;6.93;5.57;;;;;;;20.30;100.00;98347.06;2590507;28;20643;-84
2023/08/15 01:50:22;;;;;;;9.98;5.82;;;;;;;20.47;100.00;98345.03;2593276;28;20053;-84
2023/08/15 01:51:38;;;;;;;5.97;5.38;;;;;;;20.49;100.00;98347.59;2592935;28;20077;-84
2023/08/15 01:52:53;;;;;;;9.63;5.80;;;;;;;20.46;100.00;98340.66;2594123;28;20056;-84
2023/08/15 01:54:09;;;;;;;7.78;6.45;;;;;;;20.38;100.00;98346.53;2594447;28;20049;-84
2023/08/15 01:55:25;;;;;;;9.48;6.03;;;;;;;20.46;100.00;98351.28;2595734;28;20054;-84
2023/08/15 01:56:40;;;;;;;8.77;6.13;;;;;;;20.52;100.00;98336.72;2594170;28;20052;-84
2023/08/15 01:57:56;;;;;;;6.80;5.55;;;;;;;20.46;100.00;98335.34;2590813;28;20058;-84
2023/08/15 01:59:11;;;;;;;7.35;6.50;;;;;;;20.41;100.00;98343.66;2587951;28;20089;-84
2023/08/15 02:00:27;;;;;;;6.50;5.72;;;;;;;20.28;100.00;98334.84;2593311;28;20506;-84
2023/08/15 02:01:43;;;;;;;7.07;5.95;;;;;;;20.24;100.00;98336.88;2591729;28;20046;-84
2023/08/15 02:02:58;;;;;;;6.18;5.15;;;;;;;20.18;100.00;98339.94;2591301;28;20053;-84
2023/08/15 02:04:14;;;;;;;6.13;5.53;;;;;;;20.19;100.00;98339.00;2594843;28;20038;-84
2023/08/15 02:05:29;;;;;;;6.25;5.53;;;;;;;20.12;100.00;98338.56;2594023;28;20052;-84
2023/08/15 02:06:45;;;;;;;6.80;5.93;;;;;;;20.11;100.00;98336.84;2593473;28;20050;-84
2023/08/15 02:08:00;;;;;;;6.97;6.20;;;;;;;20.07;100.00;98329.22;2591817;28;20489;-84
2023/08/15 02:09:16;;;;;;;10.52;5.88;;;;;;;19.74;100.00;98337.53;2592268;28;20045;-84
2023/08/15 02:10:32;;;;;;;10.18;5.88;;;;;;;19.54;100.00;98338.88;2595098;28;20180;-84
2023/08/15 02:11:47;;;;;;;8.30;5.72;;;;;;;19.75;100.00;98341.88;2595107;28;20100;-85
2023/08/15 02:13:03;;;;;;;6.95;5.65;;;;;;;19.61;100.00;98334.88;2590606;28;20050;-84
2023/08/15 02:14:18;;;;;;;6.95;6.13;;;;;;;19.78;100.00;98340.84;2588026;28;20085;-84
2023/08/15 02:15:34;;;;;;;7.78;5.75;;;;;;;19.76;100.00;98340.94;2588810;28;20072;-84
2023/08/15 02:16:50;;;;;;;7.95;6.20;;;;;;;19.95;100.00;98342.38;2592630;28;20049;-85
2023/08/15 02:18:06;;;;;;;8.73;5.82;;;;;;;20.13;100.00;98340.28;2592885;28;20119;-84
2023/08/15 02:19:21;;;;;;;6.95;6.30;;;;;;;19.97;100.00;98340.47;2594792;28;20490;-84
2023/08/15 02:20:38;;;;;;;6.57;5.70;;;;;;;20.10;100.00;98344.94;2588120;28;20049;-84
2023/08/15 02:21:53;;;;;;;9.27;6.32;;;;;;;20.15;100.00;98343.69;2588571;28;20117;-84
2023/08/15 02:23:09;;;;;;;7.38;5.75;;;;;;;19.92;100.00;98347.03;2588381;28;20165;-84
2023/08/15 02:24:24;;;;;;;7.05;5.85;;;;;;;19.67;100.00;98344.22;2592110;28;20061;-84
2023/08/15 02:25:42;;;;;;;6.25;5.63;;;;;;;19.72;100.00;98351.91;2589818;28;20132;-84
2023/08/15 02:26:58;;;;;;;8.65;6.40;;;;;;;19.93;100.00;98346.97;2590592;28;20991;-84
2023/08/15 02:28:13;;;;;;;6.85;5.55;;;;;;;19.81;100.00;98348.59;2591766;28;20049;-84
2023/08/15 02:29:29;;;;;;;7.32;5.68;;;;;;;19.60;100.00;98353.53;2589678;28;20053;-84
2023/08/15 02:30:45;;;;;;;7.68;5.88;;;;;;;19.57;100.00;98344.00;2590358;28;20489;-84
2023/08/15 02:32:00;;;;;;;6.80;6.07;;;;;;;19.49;100.00;98343.66;2594383;28;20053;-84
2023/08/15 02:33:16;;;;;;;7.03;6.10;;;;;;;19.60;100.00;98348.22;2589392;28;20050;-84
2023/08/15 02:34:31;;;;;;;7.15;6.10;;;;;;;19.53;100.00;98344.31;2593768;28;20429;-84
2023/08/15 02:35:47;;;;;;;7.28;6.30;;;;;;;19.55;100.00;98345.88;2588298;28;20998;-84
2023/08/15 02:37:02;;;;;;;7.28;6.38;;;;;;;19.61;100.00;98341.97;2587750;28;20056;-84
2023/08/15 02:38:18;;;;;;;7.13;5.90;;;;;;;19.57;100.00;98335.16;2589618;28;20054;-84
2023/08/15 02:39:33;;;;;;;10.50;6.45;;;;;;;19.43;100.00;98342.25;2587945;28;20046;-84
2023/08/15 02:40:49;;;;;;;9.52;5.85;;;;;;;19.26;100.00;98340.69;2588674;28;20049;-84
2023/08/15 02:42:05;;;;;;;7.00;6.28;;;;;;;19.37;100.00;98336.50;2589964;28;20054;-84
2023/08/15 02:43:20;;;;;;;7.28;6.38;;;;;;;19.43;100.00;98346.72;2589409;28;20056;-84
2023/08/15 02:44:36;;;;;;;8.30;6.30;;;;;;;19.27;100.00;98339.75;2589220;28;20049;-84
2023/08/15 02:45:52;;;;;;;7.05;6.32;;;;;;;19.41;100.00;98345.94;2589404;28;20516;-84
2023/08/15 02:47:07;;;;;;;7.40;6.07;;;;;;;19.65;100.00;98350.59;2593176;28;20046;-84
2023/08/15 02:48:23;;;;;;;8.50;6.05;;;;;;;19.51;100.00;98348.88;2594680;28;20042;-84
2023/08/15 02:49:38;;;;;;;6.55;5.95;;;;;;;19.43;100.00;98346.72;2588259;28;20054;-84
2023/08/15 02:50:54;;;;;;;6.90;6.22;;;;;;;19.25;100.00;98339.00;2591232;28;20111;-84
2023/08/15 02:52:11;;;;;;;7.07;6.15;;;;;;;18.90;100.00;98340.31;2591354;28;20052;-84
2023/08/15 02:53:26;;;;;;;9.50;5.95;;;;;;;18.99;100.00;98349.50;2594807;28;20550;-84
2023/08/15 02:54:42;;;;;;;7.78;6.72;;;;;;;19.13;100.00;98330.03;2578400;28;20046;-85
2023/08/15 02:55:58;;;;;;;10.10;6.82;;;;;;;19.32;100.00;98337.66;2582239;28;20050;-84
2023/08/15 02:57:13;;;;;;;11.57;6.85;;;;;;;19.36;100.00;98338.31;2578322;28;20077;-84
2023/08/15 02:58:29;;;;;;;8.13;6.78;;;;;;;19.44;100.00;98337.81;2582092;28;20065;-86
2023/08/15 02:59:44;;;;;;;10.25;6.60;;;;;;;19.48;100.00;98349.91;2589369;28;20053;-84
2023/08/15 03:01:02;;;;;;;7.80;6.88;;;;;;;19.31;100.00;98338.59;2593930;28;20057;-84
2023/08/15 03:02:18;;;;;;;8.73;6.93;;;;;;;19.30;100.00;98342.22;2593740;28;20272;-84
2023/08/15 03:03:33;;;;;;;7.18;6.03;;;;;;;19.08;100.00;98336.59;2588130;28;20053;-84
2023/08/15 03:04:49;;;;;;;9.00;5.93;;;;;;;19.16;100.00;98335.16;2578161;28;20046;-84
2023/08/15 03:06:05;;;;;;;7.55;6.55;;;;;;;19.19;100.00;98336.75;2581717;28;20522;-84
2023/08/15 03:07:20;;;;;;;8.75;5.95;;;;;;;19.23;100.00;98340.06;2592236;28;20057;-84
2023/08/15 03:08:36;;;;;;;7.45;5.65;;;;;;;19.05;100.00;98341.16;2592349;28;20092;-84
2023/08/15 03:09:51;;;;;;;9.43;6.15;;;;;;;19.01;100.00;98334.34;2590002;28;20064;-84
2023/08/15 03:11:07;;;;;;;7.22;6.40;;;;;;;18.97;100.00;98339.91;2594206;28;20053;-83
2023/08/15 03:12:23;;;;;;;8.48;6.20;;;;;;;19.02;100.00;98343.16;2594875;28;20052;-84
2023/08/15 03:13:38;;;;;;;8.32;6.25;;;;;;;19.00;100.00;98337.97;2587412;28;20046;-83
2023/08/15 03:14:53;;;;;;;9.52;6.88;;;;;;;19.01;100.00;98337.00;2589890;28;20406;-83
2023/08/15 03:16:09;;;;;;;6.60;5.90;;;;;;;19.09;100.00;98338.31;2592090;28;20543;-83
2023/08/15 03:17:25;;;;;;;7.13;6.10;;;;;;;18.88;100.00;98339.56;2595144;28;20056;-84
2023/08/15 03:18:40;;;;;;;6.85;6.15;;;;;;;18.87;100.00;98337.00;2582076;28;20050;-84
2023/08/15 03:19:57;;;;;;;6.97;5.93;;;;;;;19.03;100.00;98339.53;2582075;28;20046;-83
2023/08/15 03:21:13;;;;;;;8.68;5.93;;;;;;;19.04;100.00;98331.50;2588850;28;20537;-84
2023/08/15 03:22:28;;;;;;;6.65;5.97;;;;;;;19.06;100.00;98328.72;2591702;28;20058;-84
2023/08/15 03:23:44;;;;;;;8.88;7.15;;;;;;;18.99;100.00;98327.41;2588806;28;20361;-83
2023/08/15 03:24:59;;;;;;;9.57;7.20;;;;;;;19.00;100.00;98330.00;2593836;28;20046;-83
2023/08/15 03:26:15;;;;;;;9.55;6.07;;;;;;;19.09;100.00;98327.69;2589655;28;20060;-84
2023/08/15 03:27:31;;;;;;;7.13;6.15;;;;;;;19.13;100.00;98330.03;2588708;28;20060;-83
2023/08/15 03:28:47;;;;;;;8.55;6.40;;;;;;;19.10;100.00;98332.91;2585820;28;20108;-86
2023/08/15 03:30:03;;;;;;;7.32;6.30;;;;;;;19.10;100.00;98332.03;2587504;28;20493;-83
2023/08/15 03:31:21;;;;;;;7.60;6.53;;;;;;;19.14;100.00;98325.59;2590083;28;20045;-83
2023/08/15 03:32:36;;;;;;;6.75;5.90;;;;;;;19.19;100.00;98334.94;2587646;28;20064;-86
2023/08/15 03:33:51;;;;;;;9.18;6.25;;;;;;;18.96;100.00;98336.41;2588416;28;20057;-86
2023/08/15 03:35:07;;;;;;;7.72;5.70;;;;;;;18.72;100.00;98337.03;2588028;28;20050;-85
2023/08/15 03:36:23;;;;;;;7.10;6.40;;;;;;;18.93;100.00;98326.00;2593047;28;20049;-85
2023/08/15 03:37:39;;;;;;;8.60;6.40;;;;;;;18.97;100.00;98335.44;2591520;28;20050;-85
2023/08/15 03:38:54;;;;;;;7.50;6.32;;;;;;;19.07;100.00;98329.59;2588941;28;20064;-85
2023/08/15 03:40:10;;;;;;;6.55;5.80;;;;;;;19.10;100.00;98327.59;2590746;28;20488;-85
2023/08/15 03:41:26;;;;;;;8.40;6.28;;;;;;;18.92;100.00;98329.59;2589039;28;20058;-85
2023/08/15 03:42:41;;;;;;;7.10;6.40;;;;;;;19.01;100.00;98325.53;2592995;28;20045;-85
2023/08/15 03:43:57;;;;;;;6.97;6.28;;;;;;;18.83;100.00;98324.88;2591583;28;20060;-85
2023/08/15 03:45:12;;;;;;;8.25;6.22;;;;;;;18.94;100.00;98325.03;2590001;28;20045;-85
2023/08/15 03:46:28;;;;;;;7.30;5.78;;;;;;;18.84;100.00;98327.44;2591380;28;20072;-85
2023/08/15 03:47:43;;;;;;;7.00;6.30;;;;;;;18.95;100.00;98325.91;2591021;28;20053;-85
2023/08/15 03:48:59;;;;;;;8.43;6.45;;;;;;;18.90;100.00;98328.84;2590250;28;20041;-85
2023/08/15 03:50:14;;;;;;;7.00;6.30;;;;;;;18.94;100.00;98333.00;2594343;28;20058;-85
2023/08/15 03:51:30;;;;;;;7.53;6.10;;;;;;;18.90;100.00;98334.16;2593403;28;21019;-85
2023/08/15 03:52:46;;;;;;;7.80;7.00;;;;;;;18.99;100.00;98330.94;2595281;28;20071;-85
2023/08/15 03:54:01;;;;;;;8.13;6.15;;;;;;;19.05;100.00;98332.34;2590491;28;20049;-84
2023/08/15 03:55:17;;;;;;;8.70;6.30;;;;;;;18.89;100.00;98333.28;2591834;28;20486;-85
2023/08/15 03:56:32;;;;;;;8.15;6.07;;;;;;;18.92;100.00;98338.41;2592186;28;20046;-85
2023/08/15 03:57:48;;;;;;;8.48;6.28;;;;;;;18.93;100.00;98336.59;2592676;28;20053;-85
2023/08/15 03:59:04;;;;;;;8.55;6.30;;;;;;;18.94;100.00;98338.31;2593611;28;20049;-85
2023/08/15 04:00:19;;;;;;;7.88;6.45;;;;;;;18.85;100.00;98345.06;2593302;28;20057;-85
2023/08/15 04:01:35;;;;;;;6.75;6.03;;;;;;;18.74;100.00;98337.78;2586674;28;20470;-85
2023/08/15 04:02:51;;;;;;;9.73;6.35;;;;;;;18.74;100.00;98339.56;2590794;28;20100;-85
2023/08/15 04:04:06;;;;;;;8.43;6.50;;;;;;;18.80;100.00;98339.22;2588443;28;20050;-85
2023/08/15 04:05:24;;;;;;;9.93;6.57;;;;;;;18.78;100.00;98335.78;2588606;28;20053;-85
2023/08/15 04:06:39;;;;;;;6.80;6.10;;;;;;;18.68;100.00;98340.81;2588402;28;20133;-85
2023/08/15 04:07:55;;;;;;;10.10;6.22;;;;;;;18.62;100.00;98339.41;2588552;28;20470;-85
2023/08/15 04:09:11;;;;;;;7.50;6.50;;;;;;;18.47;100.00;98338.56;2592401;28;20193;-85
2023/08/15 04:10:27;;;;;;;9.68;7.03;;;;;;;18.36;100.00;98341.03;2591620;28;20085;-85
2023/08/15 04:11:42;;;;;;;9.60;7.22;;;;;;;18.26;100.00;98339.88;2589790;28;20096;-85
2023/08/15 04:12:58;;;;;;;10.25;6.80;;;;;;;18.23;100.00;98343.59;2591977;28;20057;-85
2023/08/15 04:14:13;;;;;;;8.85;7.85;;;;;;;18.19;100.00;98345.59;2588666;28;20053;-85
2023/08/15 04:15:29;;;;;;;8.43;7.60;;;;;;;18.18;100.00;98346.53;2593212;28;20465;-85
2023/08/15 04:16:45;;;;;;;8.50;7.45;;;;;;;18.20;100.00;98354.38;2589380;28;20061;-85
2023/08/15 04:18:01;;;;;;;9.73;7.97;;;;;;;18.26;100.00;98355.78;2590318;28;20085;-85
2023/08/15 04:19:17;;;;;;;7.82;7.00;;;;;;;18.39;100.00;98355.91;2577772;28;20513;-85
2023/08/15 04:20:37;;;;;;;8.55;7.38;;;;;;;18.49;100.00;98352.59;2582278;28;20073;-85
2023/08/15 04:21:53;;;;;;;7.50;6.80;;;;;;;18.39;100.00;98346.13;2591327;28;20045;-85
2023/08/15 04:23:09;;;;;;;7.90;7.10;;;;;;;18.30;100.00;98349.34;2588095;28;20054;-85
2023/08/15 04:24:25;;;;;;;7.93;7.10;;;;;;;18.24;100.00;98353.25;2588505;28;20520;-85
2023/08/15 04:25:40;;;;;;;9.80;7.60;;;;;;;18.34;100.00;98351.72;2593430;28;20391;-85
2023/08/15 04:26:56;;;;;;;9.93;7.50;;;;;;;18.52;100.00;98348.91;2592926;28;20401;-85
2023/08/15 04:28:11;;;;;;;10.75;7.63;;;;;;;18.61;100.00;98350.94;2593446;28;20061;-85
2023/08/15 04:29:27;;;;;;;8.73;7.82;;;;;;;18.75;100.00;98352.75;2594127;28;20083;-85
2023/08/15 04:30:43;;;;;;;8.52;7.45;;;;;;;18.70;100.00;98352.16;2592998;28;20391;-85
2023/08/15 04:31:58;;;;;;;9.52;7.38;;;;;;;18.63;100.00;98350.88;2591020;28;20090;-84
2023/08/15 04:33:14;;;;;;;10.88;7.68;;;;;;;18.56;100.00;98341.59;2589462;28;20069;-85
2023/08/15 04:34:30;;;;;;;8.55;7.63;;;;;;;18.53;100.00;98347.09;2591227;28;20181;-86
2023/08/15 04:35:45;;;;;;;11.05;6.97;;;;;;;18.61;100.00;98344.81;2590079;28;20720;-85
2023/08/15 04:37:01;;;;;;;9.45;7.03;;;;;;;18.75;100.00;98346.59;2590473;28;20076;-85
2023/08/15 04:38:16;;;;;;;8.15;6.95;;;;;;;18.63;100.00;98342.91;2591046;28;20049;-85
2023/08/15 04:39:32;;;;;;;9.02;7.38;;;;;;;18.95;100.00;98352.44;2588694;28;20045;-85
2023/08/15 04:40:47;;;;;;;7.97;6.82;;;;;;;18.97;100.00;98354.03;2590491;28;20049;-85
2023/08/15 04:42:03;;;;;;;8.68;6.90;;;;;;;18.92;100.00;98350.81;2593334;28;20060;-85
2023/08/15 04:43:18;;;;;;;8.98;7.53;;;;;;;18.74;100.00;98351.06;2588853;28;20078;-85
2023/08/15 04:44:34;;;;;;;12.43;7.10;;;;;;;19.01;100.00;98358.22;2593434;28;20481;-85
2023/08/15 04:45:49;;;;;;;8.27;7.18;;;;;;;19.13;100.00;98361.88;2591511;28;20490;-85
2023/08/15 04:47:05;;;;;;;7.93;6.82;;;;;;;19.19;100.00;98360.63;2591730;28;20045;-85
2023/08/15 04:48:21;;;;;;;9.27;7.70;;;;;;;19.11;100.00;98352.31;2589089;28;20104;-85
2023/08/15 04:49:36;;;;;;;11.32;7.80;;;;;;;19.14;100.00;98362.75;2594430;28;20065;-85
2023/08/15 04:50:52;;;;;;;9.05;7.75;;;;;;;19.23;100.00;98359.47;2594635;28;20050;-85
2023/08/15 04:52:07;;;;;;;11.32;8.20;;;;;;;19.17;100.00;98363.38;2594210;28;20058;-84
2023/08/15 04:53:23;;;;;;;11.38;7.00;;;;;;;19.10;100.00;98369.19;2588889;28;20061;-85
2023/08/15 04:54:38;;;;;;;10.80;7.53;;;;;;;19.04;100.00;98362.47;2587436;28;20076;-84
2023/08/15 04:55:54;;;;;;;9.98;7.53;;;;;;;19.10;100.00;98364.75;2588016;28;20422;-84
2023/08/15 04:57:09;;;;;;;10.90;7.97;;;;;;;19.19;100.00;98364.13;2590693;28;20579;-84
2023/08/15 04:58:25;;;;;;;9.80;7.45;;;;;;;19.25;100.00;98375.31;2588755;28;20050;-83
2023/08/15 04:59:41;;;;;;;8.85;7.75;;;;;;;19.28;100.00;98375.13;2589298;28;20073;-82
2023/08/15 05:00:57;;;;;;;8.10;7.28;;;;;;;19.21;100.00;98377.31;2586922;28;20047;-81
2023/08/15 05:02:12;;;;;;;7.97;7.18;;;;;;;19.22;100.00;98379.00;2584577;28;20053;-82
2023/08/15 05:03:28;;;;;;;10.25;7.90;;;;;;;19.19;100.00;98381.88;2588152;28;20568;-81
2023/08/15 05:04:44;;;;;;;9.10;8.20;;;;;;;19.14;100.00;98379.50;2588086;28;20046;-81
2023/08/15 05:05:59;;;;;;;11.32;7.65;;;;;;;19.30;100.00;98387.34;2587982;28;20069;-81
2023/08/15 05:07:14;;;;;;;11.70;7.63;;;;;;;19.15;100.00;98386.53;2588259;28;20050;-81
2023/08/15 05:08:30;;;;;;;9.27;7.63;;;;;;;19.34;100.00;98396.81;2588617;28;20080;-81
2023/08/15 05:09:46;;;;;;;8.73;7.90;;;;;;;19.58;100.00;98398.81;2591368;28;20061;-82
2023/08/15 05:11:02;;;;;;;11.20;8.30;;;;;;;19.37;100.00;98394.91;2590479;28;20042;-81
2023/08/15 05:12:17;;;;;;;11.95;8.20;;;;;;;19.42;100.00;98403.44;2588148;28;20116;-81
2023/08/15 05:13:32;;;;;;;10.82;7.75;;;;;;;19.38;100.00;98405.44;2593659;28;20061;-81
2023/08/15 05:14:48;;;;;;;10.63;8.30;;;;;;;19.58;100.00;98398.81;2590644;28;20120;-80
2023/08/15 05:16:04;;;;;;;10.30;7.80;;;;;;;19.48;100.00;98397.69;2587986;28;20065;-80
2023/08/15 05:17:19;;;;;;;10.77;7.45;;;;;;;19.58;100.00;98404.13;2588000;28;20490;-80
2023/08/15 05:18:35;;;;;;;8.68;7.68;;;;;;;19.65;100.00;98401.03;2588847;28;20054;-80
2023/08/15 05:19:50;;;;;;;8.70;7.65;;;;;;;19.69;100.00;98399.88;2590805;28;20072;-80
2023/08/15 05:21:06;;;;;;;8.25;7.30;;;;;;;19.74;100.00;98401.28;2591456;28;20417;-80
2023/08/15 05:22:21;;;;;;;10.07;7.68;;;;;;;19.88;100.00;98400.38;2587778;28;20482;-80
2023/08/15 05:23:37;;;;;;;8.73;7.35;;;;;;;19.86;100.00;98396.97;2588380;28;20049;-80
2023/08/15 05:24:52;;;;;;;9.45;7.68;;;;;;;19.75;100.00;98394.19;2593607;28;20084;-80
2023/08/15 05:26:08;;;;;;;10.38;7.40;;;;;;;19.75;100.00;98397.66;2590519;28;20496;-80
2023/08/15 05:27:23;;;;;;;9.68;7.63;;;;;;;19.88;100.00;98397.72;2588168;28;20053;-80
2023/08/15 05:28:39;;;;;;;7.97;7.18;;;;;;;19.86;100.00;98394.31;2588341;28;20046;-80
2023/08/15 05:29:55;;;;;;;11.23;7.38;;;;;;;19.89;100.00;98396.75;2587918;28;20046;-80
2023/08/15 05:31:10;;;;;;;10.25;7.97;;;;;;;19.95;100.00;98394.66;2591345;28;20050;-80
2023/08/15 05:32:26;;;;;;;11.07;8.25;;;;;;;20.02;100.00;98394.16;2592043;28;20049;-80
2023/08/15 05:33:41;;;;;;;14.15;7.45;;;;;;;20.06;100.00;98394.78;2589605;28;20046;-80
2023/08/15 05:34:57;;;;;;;8.88;7.07;;;;;;;20.08;100.00;98390.22;2590716;28;20137;-80
2023/08/15 05:36:12;;;;;;;9.23;7.30;;;;;;;20.12;100.00;98396.19;2589119;28;20486;-80
2023/08/15 05:37:28;;;;;;;9.38;7.57;;;;;;;20.20;100.00;98390.34;2592592;28;20100;-80
2023/08/15 05:38:43;;;;;;;8.82;7.80;;;;;;;20.33;100.00;98388.53;2593709;28;20050;-81
2023/08/15 05:39:59;;;;;;;7.57;6.82;;;;;;;20.35;100.00;98391.09;2590440;28;20433;-81
2023/08/15 05:41:16;;;;;;;8.90;7.22;;;;;;;20.41;100.00;98391.53;2589834;28;20050;-81
2023/08/15 05:42:31;;;;;;;8.45;7.13;;;;;;;20.37;100.00;98387.38;2595901;28;20081;-80
2023/08/15 05:43:47;;;;;;;8.15;7.35;;;;;;;20.43;100.00;98386.94;2583152;28;20059;-81
2023/08/15 05:45:03;;;;;;;9.77;7.30;;;;;;;20.46;100.00;98392.03;2579130;28;20948;-85
2023/08/15 05:46:18;;;;;;;10.00;7.60;;;;;;;20.64;100.00;98398.84;2586923;28;20507;-84
2023/08/15 05:47:34;;;;;;;9.98;7.72;;;;;;;20.70;100.00;98388.63;2592523;28;20425;-85
2023/08/15 05:48:49;;;;;;;8.02;7.05;;;;;;;20.77;100.00;98385.53;2590716;28;20049;-84
2023/08/15 05:50:06;;;;;;;8.57;6.88;;;;;;;20.81;100.00;98387.88;2591709;28;20080;-84
2023/08/15 05:51:21;;;;;;;8.35;6.97;;;;;;;20.90;100.00;98391.69;2594209;28;20045;-84
2023/08/15 05:52:37;;;;;;;11.13;6.63;;;;;;;20.98;100.00;98384.03;2593440;28;20506;-84
2023/08/15 05:53:52;;;;;;;10.10;6.53;;;;;;;21.02;100.00;98388.16;2589834;28;20053;-84
2023/08/15 05:55:08;;;;;;;10.82;6.60;;;;;;;21.20;100.00;98387.78;2593030;28;20149;-84
2023/08/15 05:56:23;;;;;;;9.50;6.75;;;;;;;21.30;100.00;98387.94;2594215;28;20080;-85